createdAt,value
2023-03-28T03:45:25.671Z,673.03
2023-03-28T03:47:52.523Z,670.55
2023-03-28T03:50:19.277Z,668.88
2023-03-28T03:52:45.923Z,667.03
2023-03-28T03:55:12.748Z,669.33
2023-03-28T03:57:39.505Z,664.70
2023-03-28T04:00:12.322Z,665.95
2023-03-28T04:02:40.034Z,670.80
2023-03-28T04:05:09.238Z,674.72
2023-03-28T04:07:36.486Z,679.00
2023-03-28T04:10:03.808Z,676.25
2023-03-28T04:12:30.536Z,676.65
2023-03-28T04:14:57.435Z,679.25
2023-03-28T04:17:29.936Z,675.40
2023-03-28T04:19:57.219Z,679.00
2023-03-28T04:22:29.618Z,674.97
2023-03-28T04:24:57.235Z,674.38
2023-03-28T04:27:26.192Z,673.42
2023-03-28T04:29:56.180Z,681.90
2023-03-28T04:32:24.669Z,684.27
2023-03-28T04:34:51.371Z,682.55
2023-03-28T04:37:19.439Z,674.33
2023-03-28T04:39:49.025Z,670.28
2023-03-28T04:42:16.643Z,670.00
2023-03-28T04:44:43.395Z,676.47
2023-03-28T04:47:11.753Z,675.97
2023-03-28T04:49:38.598Z,672.97
2023-03-28T04:52:06.354Z,676.97
2023-03-28T04:54:32.978Z,676.15
2023-03-28T04:56:59.735Z,711.78
2023-03-28T04:59:26.398Z,697.13
2023-03-28T05:01:53.282Z,688.03
2023-03-28T05:04:22.214Z,683.72
2023-03-28T05:06:49.904Z,688.08
2023-03-28T05:09:17.627Z,675.63
2023-03-28T05:11:45.377Z,677.40
2023-03-28T05:14:12.431Z,672.78
2023-03-28T05:16:39.212Z,673.00
2023-03-28T05:19:06.663Z,676.77
2023-03-28T05:21:33.451Z,678.95
2023-03-28T05:24:00.286Z,674.33
2023-03-28T05:26:27.994Z,674.88
2023-03-28T05:28:54.711Z,664.20
2023-03-28T05:31:21.424Z,665.38
2023-03-28T05:33:48.101Z,666.97
2023-03-28T05:36:14.972Z,668.38
2023-03-28T05:38:42.219Z,665.80
2023-03-28T05:41:08.976Z,666.47
2023-03-28T05:43:35.765Z,669.42
2023-03-28T05:46:02.494Z,670.00
2023-03-28T05:48:29.281Z,665.22
2023-03-28T05:50:56.441Z,663.90
2023-03-28T05:53:23.201Z,665.58
2023-03-28T05:55:50.648Z,665.20
2023-03-28T05:58:17.615Z,667.53
2023-03-28T06:00:44.637Z,669.83
2023-03-28T06:03:17.340Z,664.60
2023-03-28T06:05:44.762Z,669.65
2023-03-28T06:08:11.732Z,669.70
2023-03-28T06:10:38.807Z,674.03
2023-03-28T06:13:05.626Z,671.78
2023-03-28T06:15:32.973Z,674.28
2023-03-28T06:17:59.830Z,676.58
2023-03-28T06:20:26.642Z,675.80
2023-03-28T06:22:53.399Z,674.38
2023-03-28T06:25:20.359Z,671.40
2023-03-28T06:27:47.069Z,671.17
2023-03-28T06:30:14.378Z,678.05
2023-03-28T06:32:41.192Z,677.88
2023-03-28T06:35:08.398Z,681.77
2023-03-28T06:37:35.073Z,680.63
2023-03-28T06:40:02.148Z,687.00
2023-03-28T06:42:29.027Z,686.35
2023-03-28T06:44:55.837Z,686.90
2023-03-28T06:47:22.655Z,682.85
2023-03-28T06:49:49.687Z,683.65
2023-03-28T06:52:16.899Z,685.95
2023-03-28T06:54:43.622Z,683.72
2023-03-28T06:57:10.447Z,683.90
2023-03-28T06:59:37.217Z,683.53
2023-03-28T07:02:03.973Z,686.63
2023-03-28T07:04:32.735Z,686.08
2023-03-28T07:06:59.438Z,684.58
2023-03-28T07:09:26.142Z,685.60
2023-03-28T07:11:52.949Z,686.13
2023-03-28T07:14:19.727Z,686.65
2023-03-28T07:16:46.529Z,685.00
2023-03-28T07:19:13.314Z,686.88
2023-03-28T07:21:39.958Z,684.35
2023-03-28T07:24:07.004Z,685.35
2023-03-28T07:26:33.830Z,685.85
2023-03-28T07:29:00.440Z,683.45
2023-03-28T07:31:27.710Z,681.35
2023-03-28T07:33:58.061Z,682.90
2023-03-28T07:36:27.557Z,685.17
2023-03-28T07:38:54.734Z,685.08
2023-03-28T07:41:24.265Z,715.10
2023-03-28T07:43:51.005Z,728.63
2023-03-28T07:46:17.947Z,732.65
2023-03-28T07:48:46.494Z,749.20
2023-03-28T07:51:13.968Z,750.35
2023-03-28T07:53:40.774Z,760.72
2023-03-28T07:56:12.373Z,760.55
2023-03-28T07:58:40.887Z,773.00
2023-03-28T08:01:09.466Z,777.95
2023-03-28T08:03:36.477Z,795.72
2023-03-28T08:06:24.318Z,803.55
2023-03-28T08:08:56.062Z,815.30
2023-03-28T08:11:22.918Z,851.07
2023-03-28T08:13:49.638Z,878.80
2023-03-28T08:16:16.341Z,906.33
2023-03-28T08:18:43.108Z,939.28
2023-03-28T08:21:10.072Z,960.22
2023-03-28T08:23:36.846Z,984.75
2023-03-28T08:26:06.315Z,1009.42
2023-03-28T08:28:34.598Z,1036.50
2023-03-28T08:31:02.053Z,1054.38
2023-03-28T08:33:29.109Z,1073.13
2023-03-28T08:35:56.833Z,1074.68
2023-03-28T08:38:24.256Z,1065.28
2023-03-28T08:41:17.891Z,1025.43
2023-03-28T08:44:18.522Z,992.42
2023-03-28T08:46:47.485Z,935.38
2023-03-28T08:49:17.591Z,914.20
2023-03-28T08:51:57.891Z,893.33
2023-03-28T08:54:46.461Z,881.97
2023-03-28T08:57:25.315Z,867.65
2023-03-28T09:00:17.035Z,859.20
2023-03-28T09:02:44.005Z,822.03
2023-03-28T09:05:23.300Z,824.10
2023-03-28T09:08:35.224Z,814.05
2023-03-28T09:11:16.713Z,806.78
2023-03-28T09:14:11.645Z,807.78
2023-03-28T09:17:26.629Z,825.55
2023-03-28T09:20:11.095Z,825.80
2023-03-28T09:22:49.179Z,833.85
2023-03-28T09:25:37.340Z,837.58
2023-03-28T09:28:36.768Z,904.00
2023-03-28T09:31:09.147Z,969.05
2023-03-28T09:33:40.854Z,992.40
2023-03-28T09:36:19.000Z,1019.97
2023-03-28T09:38:58.185Z,1052.15
2023-03-28T09:41:29.443Z,1082.32
2023-03-28T09:44:00.915Z,1112.45
2023-03-28T09:46:38.072Z,1149.70
2023-03-28T09:49:04.869Z,1177.47
2023-03-28T09:51:32.131Z,1195.85
2023-03-28T09:53:58.992Z,1198.60
2023-03-28T09:56:27.610Z,1214.88
2023-03-28T09:58:55.794Z,1232.68
2023-03-28T10:01:45.989Z,1242.45
2023-03-28T10:04:18.190Z,1234.05
2023-03-28T10:06:48.122Z,1241.72
2023-03-28T10:09:25.187Z,1238.72
2023-03-28T10:11:56.488Z,1234.70
2023-03-28T10:14:46.202Z,1230.60
2023-03-28T10:17:17.609Z,1235.38
2023-03-28T10:19:46.522Z,1235.68
2023-03-28T10:22:38.705Z,1219.30
2023-03-28T10:25:08.217Z,1212.38
2023-03-28T10:27:37.450Z,1204.72
2023-03-28T10:30:21.751Z,1195.63
2023-03-28T10:33:23.269Z,1190.30
2023-03-28T10:36:02.365Z,1192.60
2023-03-28T10:38:37.315Z,1184.88
2023-03-28T10:41:11.652Z,1189.35
2023-03-28T10:43:42.158Z,1190.63
2023-03-28T10:46:15.523Z,1204.72
2023-03-28T10:48:48.902Z,1205.22
2023-03-28T10:51:22.097Z,1199.32
2023-03-28T10:54:16.606Z,1184.00
2023-03-28T10:57:11.107Z,1158.45
2023-03-28T10:59:53.887Z,1149.68
2023-03-28T11:02:47.453Z,1150.00
2023-03-28T11:05:37.229Z,1156.85
2023-03-28T11:08:19.432Z,1153.07
2023-03-28T11:10:56.939Z,1147.63
2023-03-28T11:13:47.564Z,1137.85
2023-03-28T11:16:43.676Z,1124.78
2023-03-28T11:19:55.139Z,1139.95
2023-03-28T11:22:52.273Z,1148.75
2023-03-28T11:25:34.781Z,1152.97
2023-03-28T11:28:08.015Z,1146.13
2023-03-28T11:30:36.238Z,1132.17
2023-03-28T11:33:22.489Z,1124.22
2023-03-28T11:36:05.117Z,1122.07
2023-03-28T11:38:41.922Z,1120.40
2023-03-28T11:41:17.239Z,1110.85
2023-03-28T11:43:52.062Z,1135.43
2023-03-28T11:46:27.208Z,1135.00
2023-03-28T11:49:11.936Z,1137.27
2023-03-28T11:52:08.768Z,1145.85
2023-03-28T11:55:02.937Z,1145.50
2023-03-28T11:57:34.030Z,1145.05
2023-03-28T12:00:33.244Z,1144.90
2023-03-28T12:03:43.504Z,1134.05
2023-03-28T12:06:31.561Z,1127.15
2023-03-28T12:09:24.434Z,1123.37
2023-03-28T12:12:02.061Z,1116.63
2023-03-28T12:14:51.116Z,1113.22
2023-03-28T12:17:43.439Z,1112.93
2023-03-28T12:20:42.704Z,1119.65
2023-03-28T12:23:40.285Z,1125.03
2023-03-28T12:26:21.273Z,1121.90
2023-03-28T12:28:53.673Z,1106.95
2023-03-28T12:31:38.866Z,1102.38
2023-03-28T12:34:15.980Z,1093.90
2023-03-28T12:37:01.777Z,1086.17
2023-03-28T12:39:40.303Z,1074.37
2023-03-28T12:42:11.751Z,1067.40
2023-03-28T12:44:59.174Z,1049.10
2023-03-28T12:47:41.980Z,1042.55
2023-03-28T12:50:18.926Z,1037.40
2023-03-28T12:52:48.492Z,1043.18
2023-03-28T12:55:24.282Z,1046.88
2023-03-28T12:58:11.036Z,1050.18
2023-03-28T13:00:57.608Z,1048.88
2023-03-28T13:03:42.345Z,1048.65
2023-03-28T13:06:44.756Z,1041.07
2023-03-28T13:09:55.982Z,1040.30
2023-03-28T13:12:39.999Z,1032.13
2023-03-28T13:15:16.384Z,1031.20
2023-03-28T13:17:47.853Z,1023.15
2023-03-28T13:20:17.683Z,1032.38
2023-03-28T13:23:01.997Z,1034.22
2023-03-28T13:25:33.446Z,1028.75
2023-03-28T13:28:22.520Z,1021.60
2023-03-28T13:31:04.866Z,1015.05
2023-03-28T13:33:38.273Z,1015.00
2023-03-28T13:36:05.594Z,1010.75
2023-03-28T13:38:44.315Z,1011.13
2023-03-28T13:41:41.142Z,1002.45
2023-03-28T13:44:27.409Z,997.80
2023-03-28T13:46:55.064Z,997.60
2023-03-28T13:49:33.558Z,989.50
2023-03-28T13:52:04.723Z,991.22
2023-03-28T13:54:31.530Z,997.65
2023-03-28T13:57:06.970Z,1004.53
2023-03-28T13:59:40.056Z,1015.10
2023-03-28T14:02:18.354Z,1012.15
2023-03-28T14:04:57.081Z,1010.97
2023-03-28T14:07:25.951Z,1006.35
2023-03-28T14:09:53.672Z,1015.28
2023-03-28T14:12:21.372Z,1025.13
2023-03-28T14:14:51.410Z,1035.72
2023-03-28T14:17:27.176Z,1025.72
2023-03-28T14:20:05.321Z,1009.30
2023-03-28T14:22:43.293Z,1002.47
2023-03-28T14:25:21.623Z,991.45
2023-03-28T14:27:53.890Z,986.75
2023-03-28T14:30:26.098Z,991.63
2023-03-28T14:33:08.947Z,1000.40
2023-03-28T14:35:37.788Z,998.30
2023-03-28T14:38:16.842Z,999.75
2023-03-28T14:40:45.234Z,1002.80
2023-03-28T14:43:15.998Z,1004.95
2023-03-28T14:45:50.407Z,1009.95
2023-03-28T14:48:20.447Z,1020.95
2023-03-28T14:50:50.189Z,1029.55
2023-03-28T14:53:24.438Z,1041.25
2023-03-28T14:55:54.465Z,1042.35
2023-03-28T14:58:23.986Z,1042.68
2023-03-28T15:00:54.858Z,1045.18
2023-03-28T15:03:32.972Z,1049.78
2023-03-28T15:06:00.638Z,1052.30
2023-03-28T15:08:37.819Z,1043.70
2023-03-28T15:11:26.188Z,1044.93
2023-03-28T15:14:19.620Z,1029.45
2023-03-28T15:16:47.161Z,1014.00
2023-03-28T15:19:23.761Z,1005.47
2023-03-28T15:21:56.951Z,985.17
2023-03-28T15:24:26.576Z,978.22
2023-03-28T15:26:59.869Z,978.22
2023-03-28T15:29:27.874Z,980.95
2023-03-28T15:32:03.702Z,982.45
2023-03-28T15:34:31.258Z,987.85
2023-03-28T15:37:03.710Z,988.50
2023-03-28T15:39:33.597Z,977.45
2023-03-28T15:42:18.877Z,983.50
2023-03-28T15:44:58.638Z,988.63
2023-03-28T15:47:31.320Z,980.13
2023-03-28T15:50:08.289Z,976.05
2023-03-28T15:52:35.689Z,952.28
2023-03-28T15:55:05.710Z,941.35
2023-03-28T15:57:32.838Z,935.87
2023-03-28T16:00:00.846Z,934.78
2023-03-28T16:02:27.752Z,933.80
2023-03-28T16:04:58.805Z,943.50
2023-03-28T16:07:26.972Z,939.45
2023-03-28T16:09:53.908Z,935.35
2023-03-28T16:12:20.694Z,931.92
2023-03-28T16:14:49.675Z,936.05
2023-03-28T16:17:16.428Z,925.08
2023-03-28T16:19:45.360Z,926.50
2023-03-28T16:22:12.209Z,921.45
2023-03-28T16:24:39.022Z,922.03
2023-03-28T16:27:05.711Z,931.72
2023-03-28T16:29:32.679Z,929.38
2023-03-28T16:31:59.371Z,940.35
2023-03-28T16:34:26.217Z,936.20
2023-03-28T16:36:55.941Z,943.27
2023-03-28T16:39:22.689Z,943.88
2023-03-28T16:41:49.394Z,928.10
2023-03-28T16:44:16.286Z,931.58
2023-03-28T16:46:43.036Z,929.53
2023-03-28T16:49:09.769Z,927.07
2023-03-28T16:51:36.470Z,924.22
2023-03-28T16:54:03.337Z,917.65
2023-03-28T16:56:30.256Z,917.90
2023-03-28T16:58:57.000Z,913.57
2023-03-28T17:01:23.680Z,907.65
2023-03-28T17:03:52.574Z,904.78
2023-03-28T17:06:19.634Z,908.20
2023-03-28T17:08:46.593Z,898.58
2023-03-28T17:11:13.846Z,899.17
2023-03-28T17:13:42.141Z,889.50
2023-03-28T17:16:10.742Z,878.75
2023-03-28T17:18:37.822Z,858.33
2023-03-28T17:21:10.676Z,864.13
2023-03-28T17:23:39.319Z,849.15
2023-03-28T17:26:08.314Z,850.17
2023-03-28T17:28:38.847Z,846.33
2023-03-28T17:31:11.036Z,840.38
2023-03-28T17:33:38.559Z,838.97
2023-03-28T17:36:26.272Z,835.40
2023-03-28T17:38:55.640Z,824.55
2023-03-28T17:41:23.461Z,828.40
2023-03-28T17:43:54.866Z,818.88
2023-03-28T17:46:22.592Z,818.50
2023-03-28T17:48:49.874Z,816.90
2023-03-28T17:51:17.498Z,809.53
2023-03-28T17:53:46.470Z,809.13
2023-03-28T17:56:14.298Z,802.58
2023-03-28T17:58:41.054Z,807.17
2023-03-28T18:01:13.453Z,815.67
2023-03-28T18:03:41.121Z,804.77
2023-03-28T18:06:08.469Z,805.83
2023-03-28T18:08:35.713Z,808.40
2023-03-28T18:11:08.446Z,808.90
2023-03-28T18:13:37.116Z,805.65
2023-03-28T18:16:06.651Z,798.83
2023-03-28T18:18:33.400Z,803.03
2023-03-28T18:21:00.279Z,794.47
2023-03-28T18:23:27.111Z,797.03
2023-03-28T18:25:53.976Z,793.80
2023-03-28T18:28:23.922Z,796.88
2023-03-28T18:30:51.520Z,795.65
2023-03-28T18:33:19.147Z,794.05
2023-03-28T18:35:46.910Z,791.93
2023-03-28T18:38:13.916Z,795.45
2023-03-28T18:40:41.022Z,799.67
2023-03-28T18:43:08.062Z,795.17
2023-03-28T18:45:35.828Z,797.17
2023-03-28T18:48:02.638Z,811.10
2023-03-28T18:50:29.851Z,801.47
2023-03-28T18:52:57.402Z,813.63
2023-03-28T18:55:24.231Z,818.75
2023-03-28T18:57:52.439Z,824.25
2023-03-28T19:00:19.841Z,807.17
2023-03-28T19:02:47.869Z,809.10
2023-03-28T19:05:16.017Z,820.70
2023-03-28T19:07:43.935Z,806.25
2023-03-28T19:10:13.567Z,804.25
2023-03-28T19:12:41.373Z,800.83
2023-03-28T19:15:10.628Z,796.25
2023-03-28T19:17:39.767Z,813.78
2023-03-28T19:20:12.027Z,799.95
2023-03-28T19:22:39.795Z,798.35
2023-03-28T19:25:08.144Z,794.50
2023-03-28T19:27:38.303Z,797.53
2023-03-28T19:30:06.445Z,798.63
2023-03-28T19:32:33.606Z,797.05
2023-03-28T19:35:00.345Z,802.45
2023-03-28T19:37:27.034Z,801.70
2023-03-28T19:39:53.760Z,813.42
2023-03-28T19:42:21.319Z,826.08
2023-03-28T19:44:48.011Z,833.10
2023-03-28T19:47:14.759Z,826.28
2023-03-28T19:49:42.732Z,821.55
2023-03-28T19:52:09.946Z,828.07
2023-03-28T19:54:37.553Z,827.65
2023-03-28T19:57:07.942Z,830.72
2023-03-28T19:59:35.270Z,810.92
2023-03-28T20:02:02.146Z,834.15
2023-03-28T20:04:29.149Z,834.78
2023-03-28T20:06:56.249Z,823.42
2023-03-28T20:09:24.044Z,806.50
2023-03-28T20:11:50.914Z,812.38
2023-03-28T20:14:20.054Z,808.60
2023-03-28T20:16:47.778Z,813.88
2023-03-28T20:19:14.571Z,814.67
2023-03-28T20:21:41.304Z,799.20
2023-03-28T20:24:08.542Z,805.47
2023-03-28T20:26:35.423Z,811.22
2023-03-28T20:29:02.133Z,806.53
2023-03-28T20:31:29.400Z,804.80
2023-03-28T20:33:56.617Z,806.55
2023-03-28T20:36:23.467Z,806.20
2023-03-28T20:38:50.460Z,808.63
2023-03-28T20:41:18.640Z,801.58
2023-03-28T20:43:50.118Z,812.60
2023-03-28T20:46:21.041Z,799.97
2023-03-28T20:48:52.882Z,807.28
2023-03-28T20:51:22.610Z,809.63
2023-03-28T20:53:55.636Z,806.80
2023-03-28T20:56:23.448Z,805.70
2023-03-28T20:58:50.859Z,801.10
2023-03-28T21:01:18.768Z,805.35
2023-03-28T21:03:49.705Z,797.45
2023-03-28T21:06:17.239Z,807.28
2023-03-28T21:08:46.082Z,803.10
2023-03-28T21:11:17.836Z,798.55
2023-03-28T21:13:45.212Z,807.78
2023-03-28T21:16:14.246Z,809.08
2023-03-28T21:18:41.177Z,803.00
2023-03-28T21:21:09.569Z,795.45
2023-03-28T21:23:37.740Z,792.65
2023-03-28T21:26:06.160Z,792.73
2023-03-28T21:28:33.740Z,796.27
2023-03-28T21:31:12.113Z,784.03
2023-03-28T21:33:39.091Z,784.97
2023-03-28T21:36:07.546Z,773.63
2023-03-28T21:38:35.573Z,774.83
2023-03-28T21:41:03.566Z,776.40
2023-03-28T21:43:30.433Z,766.40
2023-03-28T21:45:57.185Z,764.63
2023-03-28T21:48:23.845Z,761.72
2023-03-28T21:50:58.907Z,761.28
2023-03-28T21:53:31.661Z,761.42
2023-03-28T21:55:59.365Z,769.13
2023-03-28T21:58:28.717Z,768.38
2023-03-28T22:00:55.538Z,774.15
2023-03-28T22:03:23.046Z,773.30
2023-03-28T22:05:52.580Z,770.47
2023-03-28T22:08:20.569Z,770.17
2023-03-28T22:10:52.440Z,778.25
2023-03-28T22:13:20.402Z,777.20
2023-03-28T22:15:47.285Z,768.72
2023-03-28T22:18:15.730Z,767.95
2023-03-28T22:20:43.909Z,770.08
2023-03-28T22:23:10.886Z,763.80
2023-03-28T22:25:38.429Z,770.05
2023-03-28T22:28:08.350Z,762.78
2023-03-28T22:30:36.343Z,774.60
2023-03-28T22:33:04.191Z,770.95
2023-03-28T22:35:32.269Z,779.95
2023-03-28T22:37:59.930Z,777.53
2023-03-28T22:40:26.832Z,777.47
2023-03-28T22:42:56.950Z,781.25
2023-03-28T22:45:24.983Z,781.03
2023-03-28T22:47:51.698Z,777.10
2023-03-28T22:50:19.312Z,779.97
2023-03-28T22:52:50.241Z,771.63
2023-03-28T22:55:17.687Z,773.72
2023-03-28T22:57:45.209Z,773.83
